createdAt,value
2023-04-26T00:00:58.534Z,11.00
2023-04-26T00:01:58.868Z,7.30
2023-04-26T00:02:59.271Z,10.50
2023-04-26T00:03:59.594Z,10.00
2023-04-26T00:04:59.908Z,9.00
2023-04-26T00:06:00.054Z,10.80
2023-04-26T00:07:00.322Z,7.50
2023-04-26T00:08:00.588Z,10.20
2023-04-26T00:09:00.887Z,10.10
2023-04-26T00:10:01.184Z,10.70
2023-04-26T00:11:01.458Z,10.60
2023-04-26T00:12:01.744Z,10.80
2023-04-26T00:13:02.004Z,13.20
2023-04-26T00:14:02.260Z,11.00
2023-04-26T00:15:02.544Z,10.80
2023-04-26T00:16:02.864Z,12.50
2023-04-26T00:17:03.105Z,8.10
2023-04-26T00:18:03.434Z,9.80
2023-04-26T00:19:03.679Z,10.30
2023-04-26T00:20:03.945Z,10.30
2023-04-26T00:21:04.203Z,8.70
2023-04-26T00:22:04.471Z,9.30
2023-04-26T00:23:04.704Z,10.70
2023-04-26T00:24:04.970Z,9.20
2023-04-26T00:25:05.260Z,11.30
2023-04-26T00:26:05.553Z,10.00
2023-04-26T00:27:05.827Z,10.80
2023-04-26T00:28:06.124Z,11.30
2023-04-26T00:29:06.422Z,10.20
2023-04-26T00:30:06.722Z,7.80
2023-04-26T00:31:07.006Z,8.60
2023-04-26T00:32:07.313Z,8.60
2023-04-26T00:33:07.628Z,12.70
2023-04-26T00:34:07.845Z,11.40
2023-04-26T00:35:08.138Z,10.10
2023-04-26T00:36:08.391Z,7.30
2023-04-26T00:37:08.674Z,9.90
2023-04-26T00:38:08.943Z,8.70
2023-04-26T00:39:09.225Z,8.80
2023-04-26T00:40:09.520Z,9.50
2023-04-26T00:41:09.774Z,10.10
2023-04-26T00:42:10.043Z,9.10
2023-04-26T00:43:10.279Z,9.40
2023-04-26T00:44:10.528Z,13.00
2023-04-26T00:45:10.849Z,12.30
2023-04-26T00:46:11.197Z,10.90
2023-04-26T00:47:11.450Z,10.70
2023-04-26T00:48:11.806Z,10.20
2023-04-26T00:49:12.018Z,11.00
2023-04-26T00:50:12.332Z,11.10
2023-04-26T00:51:12.613Z,9.90
2023-04-26T00:52:12.909Z,8.90
2023-04-26T00:53:13.173Z,11.60
2023-04-26T00:54:13.437Z,9.70
2023-04-26T00:55:13.726Z,9.50
2023-04-26T00:56:14.016Z,11.20
2023-04-26T00:57:14.304Z,8.10
2023-04-26T00:58:14.565Z,15.00
2023-04-26T00:59:14.875Z,9.90
2023-04-26T01:00:15.213Z,12.40
2023-04-26T01:01:15.487Z,11.10
2023-04-26T01:02:15.858Z,11.00
2023-04-26T01:03:16.129Z,9.50
2023-04-26T01:04:16.417Z,9.50
2023-04-26T01:05:16.589Z,8.50
2023-04-26T01:06:16.863Z,10.10
2023-04-26T01:07:17.144Z,11.70
2023-04-26T01:08:17.411Z,12.20
2023-04-26T01:09:17.686Z,9.50
2023-04-26T01:10:17.984Z,10.50
2023-04-26T01:11:18.209Z,7.80
2023-04-26T01:12:18.456Z,11.90
2023-04-26T01:13:25.736Z,10.40
2023-04-26T01:14:21.587Z,7.90
2023-04-26T01:15:19.315Z,11.70
2023-04-26T01:16:19.603Z,9.60
2023-04-26T01:17:19.880Z,13.70
2023-04-26T01:18:20.101Z,11.80
2023-04-26T01:19:20.376Z,10.50
2023-04-26T01:20:20.694Z,11.10
2023-04-26T01:21:20.958Z,10.60
2023-04-26T01:22:21.272Z,12.00
2023-04-26T01:23:21.511Z,12.00
2023-04-26T01:24:21.768Z,8.90
2023-04-26T01:25:22.046Z,12.40
2023-04-26T01:26:22.299Z,11.30
2023-04-26T01:27:22.635Z,11.70
2023-04-26T01:28:22.892Z,9.70
2023-04-26T01:29:23.142Z,9.90
2023-04-26T01:30:23.458Z,10.50
2023-04-26T01:31:23.779Z,12.00
2023-04-26T01:32:24.014Z,12.70
2023-04-26T01:33:24.285Z,9.90
2023-04-26T01:34:24.546Z,10.90
2023-04-26T01:35:24.810Z,9.40
2023-04-26T01:36:25.089Z,11.30
2023-04-26T01:37:25.378Z,11.00
2023-04-26T01:38:25.656Z,11.00
2023-04-26T01:39:25.958Z,13.00
2023-04-26T01:40:26.230Z,12.40
2023-04-26T01:41:26.508Z,10.00
2023-04-26T01:42:26.812Z,12.30
2023-04-26T01:43:27.120Z,10.90
2023-04-26T01:44:27.381Z,12.50
2023-04-26T01:45:27.645Z,9.80
2023-04-26T01:46:28.142Z,10.10
2023-04-26T01:47:28.275Z,10.40
2023-04-26T01:48:28.560Z,13.40
2023-04-26T01:49:28.865Z,12.60
2023-04-26T01:50:29.129Z,10.50
2023-04-26T01:51:29.420Z,11.50
2023-04-26T01:52:29.721Z,16.30
2023-04-26T01:53:29.996Z,11.30
2023-04-26T01:54:30.273Z,12.70
2023-04-26T01:55:30.565Z,10.80
2023-04-26T01:56:30.874Z,13.70
2023-04-26T01:57:31.179Z,12.30
2023-04-26T01:58:31.435Z,15.70
2023-04-26T01:59:31.685Z,9.20
2023-04-26T02:00:31.943Z,12.40
2023-04-26T02:01:32.279Z,14.20
2023-04-26T02:02:32.601Z,13.00
2023-04-26T02:03:32.841Z,14.00
2023-04-26T02:04:33.139Z,14.30
2023-04-26T02:05:33.406Z,12.50
2023-04-26T02:06:33.665Z,13.70
2023-04-26T02:07:33.916Z,13.60
2023-04-26T02:08:34.213Z,12.30
2023-04-26T02:09:34.462Z,11.40
2023-04-26T02:10:34.732Z,11.60
2023-04-26T02:11:35.010Z,14.40
2023-04-26T02:12:35.320Z,12.20
2023-04-26T02:13:35.628Z,12.90
2023-04-26T02:14:35.900Z,12.60
2023-04-26T02:15:36.169Z,8.40
2023-04-26T02:16:36.509Z,10.20
2023-04-26T02:17:36.745Z,14.10
2023-04-26T02:18:37.046Z,11.80
2023-04-26T02:19:37.328Z,13.80
2023-04-26T02:20:37.621Z,13.80
2023-04-26T02:21:37.912Z,13.30
2023-04-26T02:22:38.211Z,13.20
2023-04-26T02:23:38.513Z,14.40
2023-04-26T02:24:38.780Z,13.10
2023-04-26T02:25:39.074Z,14.80
2023-04-26T02:26:39.356Z,8.50
2023-04-26T02:27:39.605Z,12.40
2023-04-26T02:28:39.925Z,14.30
2023-04-26T02:29:43.526Z,10.50
2023-04-26T02:30:40.383Z,11.00
2023-04-26T02:31:40.674Z,15.00
2023-04-26T02:32:40.997Z,15.70
2023-04-26T02:33:41.264Z,16.00
2023-04-26T02:34:41.508Z,11.70
2023-04-26T02:35:41.768Z,15.20
2023-04-26T02:36:42.048Z,22.20
2023-04-26T02:37:42.313Z,15.00
2023-04-26T02:38:42.651Z,12.50
2023-04-26T02:39:42.896Z,14.60
2023-04-26T02:40:43.168Z,14.80
2023-04-26T02:41:43.478Z,13.50
2023-04-26T02:42:44.342Z,11.50
2023-04-26T02:43:44.048Z,13.80
2023-04-26T02:44:44.302Z,14.70
2023-04-26T02:45:44.592Z,13.50
2023-04-26T02:46:44.942Z,13.80
2023-04-26T02:47:45.213Z,15.70
2023-04-26T02:48:45.451Z,15.90
2023-04-26T02:49:45.745Z,13.20
2023-04-26T02:50:46.035Z,14.40
2023-04-26T02:51:46.313Z,12.70
2023-04-26T02:52:46.603Z,12.70
2023-04-26T02:53:46.866Z,12.30
2023-04-26T02:54:47.135Z,12.50
2023-04-26T02:55:47.456Z,13.00
2023-04-26T02:56:47.732Z,17.40
2023-04-26T02:57:48.000Z,10.00
2023-04-26T02:58:48.300Z,10.60
2023-04-26T02:59:48.593Z,11.30
2023-04-26T03:00:48.951Z,13.30
2023-04-26T03:01:49.242Z,16.90
2023-04-26T03:02:49.689Z,17.00
2023-04-26T03:03:49.874Z,13.40
2023-04-26T03:04:50.059Z,13.30
2023-04-26T03:05:50.349Z,13.40
2023-04-26T03:06:50.641Z,15.30
2023-04-26T03:07:50.904Z,14.60
2023-04-26T03:08:51.381Z,16.60
2023-04-26T03:09:51.492Z,16.60
2023-04-26T03:10:51.811Z,15.10
2023-04-26T03:11:52.143Z,15.00
2023-04-26T03:12:52.414Z,18.10
2023-04-26T03:13:52.702Z,14.00
2023-04-26T03:14:53.048Z,11.90
2023-04-26T03:15:53.308Z,17.50
2023-04-26T03:17:53.890Z,13.70
2023-04-26T03:18:54.428Z,16.30
2023-04-26T03:19:54.455Z,16.90
2023-04-26T03:20:54.713Z,15.60
2023-04-26T03:21:55.006Z,19.00
2023-04-26T03:22:55.284Z,13.40
2023-04-26T03:23:55.549Z,15.90
2023-04-26T03:24:55.822Z,14.30
2023-04-26T03:25:56.150Z,16.60
2023-04-26T03:26:56.396Z,16.10
2023-04-26T03:27:56.693Z,18.10
2023-04-26T03:28:56.938Z,15.00
2023-04-26T03:29:57.247Z,15.50
2023-04-26T03:30:57.536Z,18.70
2023-04-26T03:31:57.846Z,15.40
2023-04-26T03:32:58.141Z,14.20
2023-04-26T03:33:58.431Z,17.20
2023-04-26T03:34:58.690Z,19.40
2023-04-26T03:35:58.999Z,17.00
2023-04-26T03:36:59.256Z,16.20
2023-04-26T03:37:59.527Z,17.00
2023-04-26T03:38:59.794Z,18.10
2023-04-26T03:40:00.092Z,16.20
2023-04-26T03:41:00.402Z,18.30
2023-04-26T03:42:00.699Z,17.20
2023-04-26T03:43:01.009Z,20.90
2023-04-26T03:44:01.273Z,17.60
2023-04-26T03:45:01.570Z,18.50
2023-04-26T03:46:01.951Z,15.80
2023-04-26T03:47:02.155Z,17.30
2023-04-26T03:48:02.462Z,17.70
2023-04-26T03:49:02.710Z,22.90
2023-04-26T03:50:02.992Z,15.40
2023-04-26T03:51:03.300Z,17.10
2023-04-26T03:52:03.538Z,20.10
2023-04-26T03:53:03.839Z,18.10
2023-04-26T03:54:04.120Z,19.20
2023-04-26T03:55:04.450Z,18.60
2023-04-26T03:56:04.808Z,18.90
2023-04-26T03:57:05.094Z,18.90
2023-04-26T03:58:05.434Z,22.60
2023-04-26T03:59:05.905Z,14.80
2023-04-26T04:00:06.031Z,20.00
2023-04-26T04:01:06.370Z,20.00
2023-04-26T04:02:06.704Z,20.50
2023-04-26T04:03:07.339Z,17.30
2023-04-26T04:04:07.521Z,19.60
2023-04-26T04:05:07.655Z,24.10
2023-04-26T04:06:07.784Z,20.50
2023-04-26T04:07:08.105Z,18.60
2023-04-26T04:08:08.455Z,20.30
2023-04-26T04:09:08.739Z,22.80
2023-04-26T04:10:09.076Z,20.00
2023-04-26T04:11:09.384Z,19.20
2023-04-26T04:12:09.697Z,18.60
2023-04-26T04:13:10.049Z,21.80
2023-04-26T04:14:10.252Z,20.20
2023-04-26T04:15:10.554Z,18.60
2023-04-26T04:16:10.922Z,18.80
2023-04-26T04:17:11.206Z,19.10
2023-04-26T04:18:11.605Z,18.20
2023-04-26T04:19:11.891Z,22.00
2023-04-26T04:20:12.102Z,18.60
2023-04-26T04:21:12.438Z,19.70
2023-04-26T04:22:12.769Z,21.00
2023-04-26T04:23:13.013Z,21.00
2023-04-26T04:24:13.196Z,21.30
2023-04-26T04:25:13.504Z,21.10
2023-04-26T04:26:13.826Z,22.50
2023-04-26T04:27:14.179Z,25.50
2023-04-26T04:28:14.546Z,20.60
2023-04-26T04:29:14.752Z,18.10
2023-04-26T04:30:15.072Z,19.70
2023-04-26T04:31:15.453Z,20.80
2023-04-26T04:32:15.660Z,18.10
2023-04-26T04:33:15.890Z,20.50
2023-04-26T04:34:16.124Z,22.70
2023-04-26T04:35:16.461Z,18.00
2023-04-26T04:36:16.687Z,16.10
2023-04-26T04:37:17.008Z,18.60
2023-04-26T04:38:17.345Z,22.80
2023-04-26T04:39:17.578Z,20.90
2023-04-26T04:40:17.830Z,19.20
2023-04-26T04:41:18.210Z,19.90
2023-04-26T04:42:18.407Z,22.00
2023-04-26T04:43:18.738Z,20.70
2023-04-26T04:44:18.981Z,20.10
2023-04-26T04:45:19.214Z,20.20
2023-04-26T04:46:19.479Z,17.00
2023-04-26T04:47:19.686Z,17.50
2023-04-26T04:48:19.928Z,20.40
2023-04-26T04:49:20.129Z,17.60
2023-04-26T04:50:20.454Z,20.10
2023-04-26T04:51:20.800Z,18.90
2023-04-26T04:52:21.008Z,20.40
2023-04-26T04:53:21.349Z,22.30
2023-04-26T04:54:21.690Z,19.30
2023-04-26T04:55:21.994Z,21.60
2023-04-26T04:56:22.299Z,17.90
2023-04-26T04:57:22.632Z,19.10
2023-04-26T04:58:22.979Z,20.50
2023-04-26T04:59:23.196Z,25.10
2023-04-26T05:00:23.543Z,21.10
2023-04-26T05:01:23.956Z,18.30
2023-04-26T05:02:24.295Z,19.30
2023-04-26T05:03:24.666Z,18.60
2023-04-26T05:04:24.737Z,18.00
2023-04-26T05:05:24.876Z,15.70
2023-04-26T05:06:25.223Z,21.50
2023-04-26T05:07:26.346Z,23.20
2023-04-26T05:08:25.786Z,18.20
2023-04-26T05:09:26.740Z,19.80
2023-04-26T05:10:26.336Z,19.60
2023-04-26T05:11:26.521Z,17.20
2023-04-26T05:12:26.737Z,19.10
2023-04-26T05:13:26.987Z,15.80
2023-04-26T05:14:27.274Z,20.60
2023-04-26T05:15:27.500Z,17.90
2023-04-26T05:16:27.842Z,17.10
2023-04-26T05:17:28.111Z,19.80
2023-04-26T05:18:28.246Z,20.40
2023-04-26T05:19:28.588Z,19.00
2023-04-26T05:20:28.945Z,17.00
2023-04-26T05:21:29.191Z,14.00
2023-04-26T05:22:29.393Z,18.20
2023-04-26T05:23:29.772Z,16.40
2023-04-26T05:24:30.006Z,17.80
2023-04-26T05:25:30.202Z,15.40
2023-04-26T05:26:30.537Z,18.70
2023-04-26T05:27:30.914Z,15.50
2023-04-26T05:28:31.214Z,13.20
2023-04-26T05:29:31.442Z,13.80
2023-04-26T05:30:31.587Z,13.30
2023-04-26T05:31:31.956Z,14.70
2023-04-26T05:32:32.262Z,15.00
2023-04-26T05:33:32.447Z,15.50
2023-04-26T05:34:32.647Z,12.70
2023-04-26T05:35:32.962Z,16.80
2023-04-26T05:36:33.279Z,13.70
2023-04-26T05:37:33.678Z,18.70
2023-04-26T05:38:33.883Z,12.80
2023-04-26T05:39:34.107Z,13.10
2023-04-26T05:40:34.300Z,12.00
2023-04-26T05:41:34.604Z,12.90
2023-04-26T05:42:34.945Z,16.40
2023-04-26T05:43:35.289Z,14.90
2023-04-26T05:44:35.520Z,13.40
2023-04-26T05:45:35.794Z,13.50
2023-04-26T05:46:36.057Z,15.50
2023-04-26T05:47:36.442Z,13.50
2023-04-26T05:48:36.766Z,18.20
2023-04-26T05:49:36.962Z,14.10
2023-04-26T05:50:39.884Z,15.70
2023-04-26T05:51:37.647Z,14.00
2023-04-26T05:52:37.986Z,15.10
2023-04-26T05:53:38.367Z,16.90
2023-04-26T05:54:38.610Z,13.70
2023-04-26T05:55:38.830Z,13.80
2023-04-26T05:56:39.138Z,14.00
2023-04-26T05:57:39.548Z,12.10
2023-04-26T05:58:39.782Z,12.50
2023-04-26T05:59:40.092Z,13.40
2023-04-26T06:00:40.315Z,11.80
2023-04-26T06:01:40.637Z,11.70
2023-04-26T06:02:41.050Z,14.30
2023-04-26T06:03:41.517Z,13.60
2023-04-26T06:04:41.760Z,14.30
2023-04-26T06:05:41.892Z,13.60
2023-04-26T06:06:42.179Z,13.00
2023-04-26T06:07:42.490Z,14.90
2023-04-26T06:08:42.866Z,12.80
2023-04-26T06:09:43.050Z,15.30
2023-04-26T06:10:43.372Z,11.60
2023-04-26T06:11:43.677Z,12.80
2023-04-26T06:12:43.993Z,11.30
2023-04-26T06:13:44.341Z,12.80
2023-04-26T06:14:44.557Z,13.80
2023-04-26T06:15:44.917Z,11.60
2023-04-26T06:16:45.168Z,13.10
2023-04-26T06:17:45.545Z,10.50
2023-04-26T06:18:45.771Z,11.80
2023-04-26T06:19:45.983Z,11.30
2023-04-26T06:20:46.182Z,15.80
2023-04-26T06:21:46.576Z,13.80
2023-04-26T06:22:46.773Z,12.70
2023-04-26T06:23:47.107Z,14.80
2023-04-26T06:24:47.325Z,14.20
2023-04-26T06:25:47.647Z,11.10
2023-04-26T06:26:47.984Z,16.00
2023-04-26T06:27:48.353Z,15.60
2023-04-26T06:28:48.598Z,12.70
2023-04-26T06:29:48.836Z,13.70
2023-04-26T06:30:49.148Z,11.60
2023-04-26T06:31:49.325Z,13.40
2023-04-26T06:32:49.649Z,12.90
2023-04-26T06:33:50.324Z,14.60
2023-04-26T06:34:50.101Z,12.40
2023-04-26T06:35:50.373Z,14.40
2023-04-26T06:36:50.575Z,14.60
2023-04-26T06:37:50.781Z,14.40
2023-04-26T06:38:51.173Z,15.00
2023-04-26T06:39:51.365Z,15.50
2023-04-26T06:40:51.714Z,13.80
2023-04-26T06:41:52.652Z,12.70
2023-04-26T06:42:52.253Z,15.30
2023-04-26T06:43:52.749Z,14.10
2023-04-26T06:44:52.752Z,12.60
2023-04-26T06:45:52.979Z,14.20
2023-04-26T06:46:53.329Z,12.70
2023-04-26T06:47:53.612Z,14.70
2023-04-26T06:48:53.834Z,14.00
2023-04-26T06:49:54.084Z,16.90
2023-04-26T06:50:54.291Z,15.50
2023-04-26T06:51:54.666Z,14.70
2023-04-26T06:52:54.919Z,15.30
2023-04-26T06:53:55.266Z,13.00
2023-04-26T06:54:57.571Z,14.50
2023-04-26T06:55:55.624Z,13.70
2023-04-26T06:56:56.036Z,12.60
2023-04-26T06:57:56.187Z,13.30
2023-04-26T06:58:56.416Z,18.00
2023-04-26T06:59:56.690Z,12.80
2023-04-26T07:00:56.978Z,16.50
2023-04-26T07:01:57.477Z,17.30
2023-04-26T07:02:57.756Z,15.00
2023-04-26T07:03:58.460Z,16.30
2023-04-26T07:04:58.417Z,17.20
2023-04-26T07:05:58.436Z,18.00
2023-04-26T07:06:58.690Z,20.20
2023-04-26T07:07:58.978Z,16.10
2023-04-26T07:09:59.431Z,15.80
2023-04-26T07:10:59.767Z,18.30
2023-04-26T07:12:00.123Z,17.60
2023-04-26T07:13:09.389Z,17.20
2023-04-26T07:14:00.734Z,16.30
2023-04-26T07:15:01.076Z,16.40
2023-04-26T07:16:01.431Z,16.50
2023-04-26T07:17:01.768Z,17.70
2023-04-26T07:18:02.033Z,18.00
2023-04-26T07:19:02.265Z,15.20
2023-04-26T07:20:02.477Z,20.60
2023-04-26T07:21:02.776Z,15.50
2023-04-26T07:22:03.137Z,14.20
2023-04-26T07:23:03.395Z,15.30
2023-04-26T07:24:03.735Z,17.00
2023-04-26T07:25:03.834Z,18.60
2023-04-26T07:26:04.193Z,18.30
2023-04-26T07:27:04.397Z,16.70
2023-04-26T07:28:04.735Z,14.20
2023-04-26T07:29:04.991Z,14.70
2023-04-26T07:30:05.213Z,14.60
2023-04-26T07:31:07.195Z,15.70
2023-04-26T07:32:05.833Z,14.20
2023-04-26T07:33:06.220Z,17.10
2023-04-26T07:34:06.428Z,17.00
2023-04-26T07:35:06.672Z,16.40
2023-04-26T07:36:06.869Z,18.00
2023-04-26T07:37:07.232Z,18.20
2023-04-26T07:38:07.500Z,14.80
2023-04-26T07:39:07.717Z,16.10
2023-04-26T07:40:07.962Z,12.40
2023-04-26T07:41:08.179Z,15.50
2023-04-26T07:42:08.534Z,16.60
2023-04-26T07:43:08.916Z,14.60
2023-04-26T07:44:09.074Z,14.60
2023-04-26T07:45:09.408Z,13.00
2023-04-26T07:46:09.754Z,15.30
2023-04-26T07:47:10.084Z,14.70
2023-04-26T07:48:10.439Z,14.90
2023-04-26T07:49:10.778Z,16.80
2023-04-26T07:50:11.006Z,17.90
2023-04-26T07:51:11.224Z,18.80
2023-04-26T07:52:11.559Z,14.40
2023-04-26T07:53:11.914Z,15.00
2023-04-26T07:54:12.105Z,15.60
2023-04-26T07:55:12.420Z,16.10
2023-04-26T07:56:12.729Z,14.50
2023-04-26T07:57:13.049Z,16.60
2023-04-26T07:58:13.424Z,15.20
2023-04-26T07:59:13.646Z,17.10
2023-04-26T08:00:13.865Z,15.20
2023-04-26T08:01:15.704Z,19.20
2023-04-26T08:02:14.598Z,14.20
2023-04-26T08:03:30.363Z,17.10
2023-04-26T08:04:15.335Z,15.70
2023-04-26T08:05:15.560Z,15.70
2023-04-26T08:06:15.704Z,14.60
2023-04-26T08:07:15.986Z,13.30
2023-04-26T08:08:17.234Z,14.70
2023-04-26T08:09:16.531Z,15.40
2023-04-26T08:10:16.815Z,15.50
2023-04-26T08:11:17.148Z,13.50
2023-04-26T08:12:17.273Z,14.30
2023-04-26T08:13:17.628Z,15.80
2023-04-26T08:14:17.883Z,15.20
2023-04-26T08:15:18.149Z,18.30
2023-04-26T08:16:18.405Z,19.80
2023-04-26T08:17:18.594Z,18.00
2023-04-26T08:18:18.917Z,18.10
2023-04-26T08:19:19.277Z,16.60
2023-04-26T08:20:19.531Z,15.90
2023-04-26T08:21:19.756Z,16.40
2023-04-26T08:22:19.982Z,19.20
2023-04-26T08:23:20.318Z,15.10
2023-04-26T08:24:20.582Z,21.60
2023-04-26T08:25:20.828Z,17.40
2023-04-26T08:26:21.021Z,14.30
2023-04-26T08:27:21.297Z,18.50
2023-04-26T08:28:21.502Z,15.60
2023-04-26T08:29:21.775Z,16.90
2023-04-26T08:30:21.999Z,23.20
2023-04-26T08:31:22.361Z,16.50
2023-04-26T08:32:22.654Z,16.50
2023-04-26T08:33:22.792Z,14.10
2023-04-26T08:34:23.232Z,15.90
2023-04-26T08:35:23.427Z,14.50
2023-04-26T08:36:23.670Z,16.80
2023-04-26T08:37:23.966Z,16.30
2023-04-26T08:38:24.173Z,16.30
2023-04-26T08:39:24.463Z,13.70
2023-04-26T08:40:24.713Z,13.50
2023-04-26T08:41:24.929Z,14.60
2023-04-26T08:42:25.126Z,12.30
2023-04-26T08:43:25.361Z,11.10
2023-04-26T08:44:25.660Z,10.70
2023-04-26T08:45:25.927Z,11.50
2023-04-26T08:46:26.202Z,14.20
2023-04-26T08:47:26.404Z,12.70
2023-04-26T08:48:26.665Z,9.70
2023-04-26T08:49:26.933Z,11.60
2023-04-26T08:50:27.244Z,13.80
2023-04-26T08:51:27.402Z,14.40
2023-04-26T08:52:27.772Z,12.50
2023-04-26T08:53:27.980Z,12.10
2023-04-26T08:54:28.268Z,17.20
2023-04-26T08:55:28.495Z,12.30
2023-04-26T08:56:28.727Z,13.00
2023-04-26T08:57:28.936Z,13.80
2023-04-26T08:58:29.265Z,14.90
2023-04-26T08:59:29.504Z,10.30
2023-04-26T09:00:29.833Z,13.10
2023-04-26T09:01:30.202Z,16.00
2023-04-26T09:02:30.500Z,13.10
2023-04-26T09:03:30.851Z,15.40
2023-04-26T09:04:31.171Z,15.80
2023-04-26T09:05:31.306Z,14.90
2023-04-26T09:06:31.516Z,11.20
2023-04-26T09:07:31.773Z,15.30
2023-04-26T09:08:32.007Z,14.20
2023-04-26T09:09:32.272Z,15.70
2023-04-26T09:10:32.592Z,12.70
2023-04-26T09:11:32.849Z,14.90
2023-04-26T09:12:33.059Z,14.00
2023-04-26T09:13:33.381Z,11.30
2023-04-26T09:14:33.639Z,12.60
2023-04-26T09:15:33.841Z,12.00
2023-04-26T09:16:34.229Z,12.90
2023-04-26T09:17:34.433Z,14.40
2023-04-26T09:18:34.728Z,9.70
2023-04-26T09:19:34.925Z,10.70
2023-04-26T09:20:35.183Z,12.30
2023-04-26T09:21:35.437Z,10.00
2023-04-26T09:22:35.656Z,10.80
2023-04-26T09:23:35.947Z,13.00
2023-04-26T09:24:36.165Z,13.10
2023-04-26T09:25:36.477Z,15.00
2023-04-26T09:26:36.649Z,15.70
2023-04-26T09:27:36.916Z,11.40
2023-04-26T09:28:37.175Z,14.40
2023-04-26T09:29:37.408Z,10.10
2023-04-26T09:30:37.671Z,15.90
2023-04-26T09:31:37.934Z,11.70
2023-04-26T09:32:38.288Z,15.50
2023-04-26T09:33:38.457Z,12.00
2023-04-26T09:34:38.753Z,13.80
2023-04-26T09:35:39.185Z,15.70
2023-04-26T09:36:39.393Z,13.20
2023-04-26T09:38:39.890Z,12.30
2023-04-26T09:39:40.212Z,10.50
2023-04-26T09:40:40.479Z,13.80
2023-04-26T09:41:40.709Z,12.30
2023-04-26T09:42:40.900Z,14.50
2023-04-26T09:43:41.164Z,12.70
2023-04-26T09:44:41.547Z,12.10
2023-04-26T09:45:41.812Z,11.30
2023-04-26T09:46:42.103Z,11.10
2023-04-26T09:47:42.389Z,9.30
2023-04-26T09:48:42.509Z,9.00
2023-04-26T09:49:42.895Z,10.90
2023-04-26T09:50:43.169Z,9.70
2023-04-26T09:51:43.367Z,12.20
2023-04-26T09:52:43.598Z,11.40
2023-04-26T09:53:43.947Z,11.10
2023-04-26T09:54:44.137Z,12.10
2023-04-26T09:55:44.534Z,11.10
2023-04-26T09:56:44.765Z,12.90
2023-04-26T09:57:45.012Z,10.80
2023-04-26T09:58:45.217Z,12.90
2023-04-26T09:59:45.567Z,12.30
2023-04-26T10:00:45.822Z,14.30
2023-04-26T10:01:46.141Z,12.40
2023-04-26T10:02:46.492Z,8.10
2023-04-26T10:03:46.969Z,12.60
2023-04-26T10:04:47.090Z,10.50
2023-04-26T10:05:47.367Z,11.70
2023-04-26T10:06:47.545Z,11.30
2023-04-26T10:07:47.953Z,9.70
2023-04-26T10:08:48.105Z,8.90
2023-04-26T10:09:48.473Z,8.90
2023-04-26T10:10:48.845Z,7.90
2023-04-26T10:11:49.182Z,13.20
2023-04-26T10:12:49.414Z,9.70
2023-04-26T10:13:49.710Z,7.90
2023-04-26T10:14:50.045Z,9.90
2023-04-26T10:15:50.420Z,9.00
2023-04-26T10:16:50.744Z,7.00
2023-04-26T10:17:52.145Z,9.60
2023-04-26T10:18:51.689Z,9.80
2023-04-26T10:19:51.600Z,8.00
2023-04-26T10:20:52.035Z,9.50
2023-04-26T10:21:52.242Z,9.80
2023-04-26T10:22:52.489Z,7.80
2023-04-26T10:23:52.723Z,11.00
2023-04-26T10:24:52.932Z,8.80
2023-04-26T10:25:53.225Z,7.30
2023-04-26T10:26:53.564Z,10.40
2023-04-26T10:27:53.922Z,10.30
2023-04-26T10:28:58.938Z,8.60
2023-04-26T10:29:55.436Z,7.50
2023-04-26T10:30:54.743Z,8.90
2023-04-26T10:31:54.977Z,8.10
2023-04-26T10:32:55.269Z,8.80
2023-04-26T10:33:55.650Z,8.80
2023-04-26T10:34:55.872Z,10.10
2023-04-26T10:35:56.127Z,8.10
2023-04-26T10:36:56.336Z,8.10
2023-04-26T10:37:56.651Z,7.60
2023-04-26T10:38:56.910Z,8.40
2023-04-26T10:39:57.208Z,11.00
2023-04-26T10:40:57.495Z,6.90
2023-04-26T10:41:57.797Z,7.90
2023-04-26T10:42:58.024Z,7.40
2023-04-26T10:43:58.345Z,7.80
2023-04-26T10:44:58.792Z,9.20
2023-04-26T10:45:58.931Z,9.00
2023-04-26T10:46:59.092Z,6.70
2023-04-26T10:47:59.391Z,7.60
2023-04-26T10:48:59.585Z,7.20
2023-04-26T10:49:59.939Z,7.50
2023-04-26T10:51:00.331Z,9.50
2023-04-26T10:52:00.544Z,10.20
2023-04-26T10:53:01.772Z,9.00
2023-04-26T10:54:01.053Z,9.00
2023-04-26T10:55:01.300Z,8.90
2023-04-26T10:56:01.587Z,8.30
2023-04-26T10:57:01.835Z,9.10
2023-04-26T10:58:02.014Z,9.20
2023-04-26T10:59:02.822Z,7.40
2023-04-26T11:00:02.578Z,10.30
2023-04-26T11:01:02.862Z,8.60
2023-04-26T11:02:03.218Z,8.80
2023-04-26T11:03:03.440Z,8.90
2023-04-26T11:04:03.967Z,7.80
2023-04-26T11:05:04.076Z,12.30
2023-04-26T11:06:04.331Z,7.20
2023-04-26T11:07:04.539Z,8.30
2023-04-26T11:08:04.870Z,8.30
2023-04-26T11:09:05.106Z,9.50
2023-04-26T11:10:05.477Z,8.10
2023-04-26T11:11:05.713Z,9.60
2023-04-26T11:12:05.975Z,8.10
2023-04-26T11:13:06.323Z,8.60
2023-04-26T11:14:06.522Z,11.10
2023-04-26T11:15:06.875Z,11.50
2023-04-26T11:16:07.230Z,9.90
2023-04-26T11:17:07.475Z,10.90
2023-04-26T11:18:07.773Z,9.10
2023-04-26T11:19:07.924Z,10.10
2023-04-26T11:20:08.235Z,10.80
2023-04-26T11:21:08.421Z,10.50
2023-04-26T11:22:08.640Z,9.00
2023-04-26T11:23:09.002Z,10.30
2023-04-26T11:24:09.312Z,6.60
2023-04-26T11:25:09.729Z,6.40
2023-04-26T11:26:09.915Z,6.60
2023-04-26T11:27:10.314Z,7.10
2023-04-26T11:28:10.494Z,8.00
2023-04-26T11:29:10.839Z,10.90
2023-04-26T11:30:11.044Z,8.50
2023-04-26T11:31:11.400Z,7.80
2023-04-26T11:32:11.757Z,8.60
2023-04-26T11:33:11.960Z,11.70
2023-04-26T11:34:12.221Z,9.70
2023-04-26T11:35:12.497Z,7.80
2023-04-26T11:36:12.975Z,5.80
2023-04-26T11:37:13.198Z,6.80
2023-04-26T11:38:13.348Z,6.50
2023-04-26T11:39:14.319Z,8.30
2023-04-26T11:40:13.959Z,7.90
2023-04-26T11:41:14.370Z,6.40
2023-04-26T11:42:14.570Z,9.40
2023-04-26T11:43:14.934Z,10.40
2023-04-26T11:44:15.156Z,9.80
2023-04-26T11:45:15.481Z,10.40
2023-04-26T11:46:15.912Z,10.00
2023-04-26T11:47:16.142Z,10.10
2023-04-26T11:48:16.387Z,11.70
2023-04-26T11:49:16.723Z,7.80
2023-04-26T11:50:16.943Z,9.00
2023-04-26T11:51:17.501Z,10.20
2023-04-26T11:52:17.502Z,10.10
2023-04-26T11:53:17.754Z,10.30
2023-04-26T11:54:18.102Z,8.80
2023-04-26T11:55:18.479Z,10.10
2023-04-26T11:56:18.791Z,12.20
2023-04-26T11:57:18.997Z,9.20
2023-04-26T11:58:19.386Z,8.50
2023-04-26T11:59:19.604Z,10.10
2023-04-26T12:00:19.872Z,11.10
2023-04-26T12:01:20.194Z,14.30
2023-04-26T12:02:20.485Z,10.90
2023-04-26T12:03:20.902Z,10.10
2023-04-26T12:04:21.066Z,11.60
2023-04-26T12:05:21.240Z,8.70
2023-04-26T12:06:21.454Z,7.40
2023-04-26T12:07:21.651Z,9.30
2023-04-26T12:08:21.883Z,8.60
2023-04-26T12:09:22.218Z,8.50
2023-04-26T12:10:22.546Z,10.60
2023-04-26T12:11:22.869Z,9.10
2023-04-26T12:12:23.047Z,10.10
2023-04-26T12:13:23.319Z,9.60
2023-04-26T12:14:23.594Z,11.20
2023-04-26T12:15:23.990Z,6.70
2023-04-26T12:16:26.792Z,7.90
2023-04-26T12:17:24.874Z,8.70
2023-04-26T12:18:24.926Z,8.90
2023-04-26T12:19:25.286Z,9.00
2023-04-26T12:20:25.577Z,8.80
2023-04-26T12:21:27.525Z,10.50
2023-04-26T12:22:26.178Z,10.70
2023-04-26T12:23:26.419Z,10.40
2023-04-26T12:24:26.702Z,9.70
2023-04-26T12:25:27.021Z,11.00
2023-04-26T12:26:27.399Z,9.30
2023-04-26T12:27:27.676Z,11.90
2023-04-26T12:28:27.880Z,11.50
2023-04-26T12:29:28.125Z,12.50
2023-04-26T12:30:28.348Z,8.40
2023-04-26T12:31:28.743Z,10.70
2023-04-26T12:32:28.984Z,9.40
2023-04-26T12:33:29.423Z,12.20
2023-04-26T12:34:29.624Z,9.60
2023-04-26T12:35:29.875Z,9.70
2023-04-26T12:36:30.074Z,11.20
2023-04-26T12:37:30.408Z,9.70
2023-04-26T12:38:30.710Z,9.60
2023-04-26T12:39:31.051Z,10.60
2023-04-26T12:40:31.277Z,9.60
2023-04-26T12:41:31.696Z,12.50
2023-04-26T12:42:31.900Z,11.60
2023-04-26T12:43:32.160Z,12.80
2023-04-26T12:44:32.513Z,11.40
2023-04-26T12:45:32.694Z,11.90
2023-04-26T12:46:33.053Z,11.60
2023-04-26T12:47:33.236Z,7.00
2023-04-26T12:48:33.861Z,11.70
2023-04-26T12:49:33.830Z,11.00
2023-04-26T12:50:34.164Z,12.00
2023-04-26T12:51:34.410Z,11.80
2023-04-26T12:52:34.594Z,11.00
2023-04-26T12:53:34.855Z,12.70
2023-04-26T12:54:35.109Z,8.90
2023-04-26T12:55:35.285Z,11.00
2023-04-26T12:56:35.523Z,11.80
2023-04-26T12:57:35.944Z,14.10
2023-04-26T12:58:36.256Z,9.50
2023-04-26T12:59:36.381Z,9.30
2023-04-26T13:00:36.649Z,11.00
2023-04-26T13:01:36.860Z,11.90
2023-04-26T13:02:37.279Z,9.70
2023-04-26T13:03:37.732Z,12.20
2023-04-26T13:04:40.817Z,11.80